createdAt,value
2022-09-06T00:01:23.281Z,100393.59
2022-09-06T00:03:50.922Z,100392.94
2022-09-06T00:06:20.523Z,100390.94
2022-09-06T00:09:06.944Z,100386.59
2022-09-06T00:11:53.343Z,100385.50
2022-09-06T00:14:40.009Z,100385.88
2022-09-06T00:17:26.510Z,100387.09
2022-09-06T00:20:13.042Z,100389.13
2022-09-06T00:23:01.887Z,100401.66
2022-09-06T00:25:29.950Z,100396.34
2022-09-06T00:27:58.573Z,100394.06
2022-09-06T00:30:26.311Z,100395.31
2022-09-06T00:32:53.924Z,100389.50
2022-09-06T00:35:21.879Z,100397.56
2022-09-06T00:37:48.867Z,100383.13
2022-09-06T00:40:16.019Z,100382.78
2022-09-06T00:42:43.221Z,100384.81
2022-09-06T00:45:11.810Z,100382.28
2022-09-06T00:47:41.991Z,100378.91
2022-09-06T00:50:12.824Z,100364.81
2022-09-06T00:52:42.834Z,100375.91
2022-09-06T00:55:10.039Z,100376.88
2022-09-06T00:57:37.156Z,100372.78
2022-09-06T01:00:06.537Z,100377.31
2022-09-06T01:02:33.352Z,100380.72
2022-09-06T01:05:01.288Z,100379.88
2022-09-06T01:07:43.840Z,100382.53
2022-09-06T01:10:31.632Z,100385.91
2022-09-06T01:13:04.484Z,100386.94
2022-09-06T01:16:06.450Z,100389.03
2022-09-06T01:18:42.116Z,100387.34
2022-09-06T01:21:33.284Z,100389.88
2022-09-06T01:24:11.979Z,100393.84
2022-09-06T01:26:58.433Z,100413.44
2022-09-06T01:29:36.783Z,100415.19
2022-09-06T01:32:25.274Z,100420.84
2022-09-06T01:35:23.012Z,100426.97
2022-09-06T01:37:49.839Z,100453.59
2022-09-06T01:40:16.377Z,100529.78
2022-09-06T01:42:46.461Z,100569.13
2022-09-06T01:45:18.156Z,100576.72
2022-09-06T01:47:57.086Z,100559.72
2022-09-06T01:50:38.673Z,100563.94
2022-09-06T01:53:30.040Z,100575.88
2022-09-06T01:56:10.076Z,100582.44
2022-09-06T01:59:06.499Z,100585.19
2022-09-06T02:02:00.196Z,100575.06
2022-09-06T02:04:31.030Z,100568.81
2022-09-06T02:07:06.096Z,100581.47
2022-09-06T02:09:40.896Z,100574.09
2022-09-06T02:12:12.433Z,100571.72
2022-09-06T02:14:43.678Z,100558.34
2022-09-06T02:17:15.891Z,100544.25
2022-09-06T02:19:48.575Z,100540.28
2022-09-06T02:22:19.759Z,100520.53
2022-09-06T02:24:50.016Z,100498.72
2022-09-06T02:27:17.084Z,100504.53
2022-09-06T02:29:45.104Z,100502.94
2022-09-06T02:32:18.388Z,100488.63
2022-09-06T02:34:46.135Z,100492.00
2022-09-06T02:37:13.524Z,100498.88
2022-09-06T02:39:40.513Z,100507.91
2022-09-06T02:42:10.100Z,100526.44
2022-09-06T02:44:37.049Z,100523.31
2022-09-06T02:47:03.875Z,100534.41
2022-09-06T02:49:31.202Z,100558.97
2022-09-06T02:51:58.273Z,100569.81
2022-09-06T02:54:25.331Z,100586.06
2022-09-06T02:56:52.590Z,100565.34
2022-09-06T02:59:19.640Z,100551.53
2022-09-06T03:01:46.226Z,100543.59
2022-09-06T03:04:12.960Z,100526.72
2022-09-06T03:06:40.035Z,100524.06
2022-09-06T03:09:06.515Z,100505.13
2022-09-06T03:11:32.963Z,100499.22
2022-09-06T03:13:59.871Z,100509.22
2022-09-06T03:16:26.448Z,100518.13
2022-09-06T03:18:53.248Z,100534.41
2022-09-06T03:21:20.320Z,100531.75
2022-09-06T03:23:47.315Z,100515.50
2022-09-06T03:26:13.844Z,100485.59
2022-09-06T03:28:40.531Z,100470.31
2022-09-06T03:31:07.324Z,100469.94
2022-09-06T03:33:34.559Z,100445.59
2022-09-06T03:36:03.120Z,100424.50
2022-09-06T03:38:30.399Z,100406.47
2022-09-06T03:40:57.196Z,100394.78
2022-09-06T03:43:26.010Z,100383.94
2022-09-06T03:45:55.164Z,100387.66
2022-09-06T03:48:23.556Z,100382.50
2022-09-06T03:50:52.544Z,100385.97
2022-09-06T03:53:19.897Z,100381.75
2022-09-06T03:55:48.410Z,100377.81
2022-09-06T03:58:17.317Z,100368.63
2022-09-06T04:00:45.041Z,100368.25
2022-09-06T04:03:11.791Z,100358.03
2022-09-06T04:05:39.008Z,100363.22
2022-09-06T04:08:05.975Z,100373.69
2022-09-06T04:10:34.009Z,100378.50
2022-09-06T04:13:00.646Z,100391.63
2022-09-06T04:15:27.104Z,100398.38
2022-09-06T04:17:54.039Z,100396.91
2022-09-06T04:20:20.521Z,100409.41
2022-09-06T04:22:47.200Z,100418.31
2022-09-06T04:25:14.094Z,100410.59
2022-09-06T04:27:40.740Z,100400.13
2022-09-06T04:30:07.990Z,100402.50
2022-09-06T04:32:34.686Z,100403.06
2022-09-06T04:35:01.205Z,100404.03
2022-09-06T04:37:28.307Z,100407.84
2022-09-06T04:39:55.503Z,100404.81
2022-09-06T04:42:22.447Z,100409.47
2022-09-06T04:44:49.129Z,100410.41
2022-09-06T04:47:19.176Z,100412.94
2022-09-06T04:49:48.138Z,100417.03
2022-09-06T04:52:16.133Z,100414.84
2022-09-06T04:54:43.680Z,100411.75
2022-09-06T04:57:10.646Z,100415.47
2022-09-06T04:59:37.242Z,100414.41
2022-09-06T05:02:04.222Z,100412.41
2022-09-06T05:04:30.770Z,100423.09
2022-09-06T05:07:05.670Z,100411.34
2022-09-06T05:09:33.316Z,100411.06
2022-09-06T05:12:00.838Z,100418.66
2022-09-06T05:14:28.274Z,100427.66
2022-09-06T05:16:55.139Z,100418.41
2022-09-06T05:19:21.889Z,100428.63
2022-09-06T05:21:50.677Z,100435.72
2022-09-06T05:24:17.276Z,100442.94
2022-09-06T05:26:43.979Z,100443.66
2022-09-06T05:29:10.888Z,100448.09
2022-09-06T05:31:37.444Z,100452.25
2022-09-06T05:34:03.993Z,100450.34
2022-09-06T05:36:31.300Z,100450.16
2022-09-06T05:38:58.843Z,100450.72
2022-09-06T05:41:25.900Z,100452.94
2022-09-06T05:43:52.475Z,100457.16
2022-09-06T05:46:19.706Z,100464.69
2022-09-06T05:49:00.355Z,100464.31
2022-09-06T05:51:27.117Z,100471.31
2022-09-06T05:53:54.057Z,100483.63
2022-09-06T05:56:22.389Z,100478.72
2022-09-06T05:58:49.015Z,100481.69
2022-09-06T06:01:22.828Z,100481.63
2022-09-06T06:04:05.496Z,100485.38
2022-09-06T06:06:34.118Z,100486.38
2022-09-06T06:09:00.962Z,100489.88
2022-09-06T06:11:27.896Z,100490.41
2022-09-06T06:13:54.469Z,100494.41
2022-09-06T06:16:22.656Z,100499.91
2022-09-06T06:18:52.183Z,100501.84
2022-09-06T06:21:21.883Z,100504.19
2022-09-06T06:23:54.407Z,100495.09
2022-09-06T06:26:21.706Z,100504.47
2022-09-06T06:28:48.909Z,100506.28
2022-09-06T06:31:19.232Z,100502.03
2022-09-06T06:33:46.273Z,100502.09
2022-09-06T06:36:13.175Z,100497.44
2022-09-06T06:38:44.709Z,100502.94
2022-09-06T06:41:13.524Z,100506.75
2022-09-06T06:43:40.490Z,100502.69
2022-09-06T06:46:09.459Z,100498.13
2022-09-06T06:48:38.161Z,100508.69
2022-09-06T06:51:05.043Z,100513.66
2022-09-06T06:53:32.940Z,100511.03
2022-09-06T06:55:59.412Z,100517.47
2022-09-06T06:58:26.392Z,100513.25
2022-09-06T07:00:53.879Z,100512.00
2022-09-06T07:03:20.442Z,100519.56
2022-09-06T07:08:34.749Z,100518.81
2022-09-06T07:11:01.387Z,100520.09
2022-09-06T07:13:28.395Z,100517.00
2022-09-06T07:16:24.755Z,100521.00
2022-09-06T07:18:53.180Z,100509.19
2022-09-06T07:21:41.374Z,100508.53
2022-09-06T07:24:09.242Z,100514.38
2022-09-06T07:26:38.505Z,100516.19
2022-09-06T07:29:06.813Z,100521.81
2022-09-06T07:34:22.237Z,100524.84
2022-09-06T07:36:52.411Z,100523.75
2022-09-06T07:39:18.865Z,100518.94
2022-09-06T07:41:45.639Z,100512.50
2022-09-06T07:44:12.146Z,100520.34
2022-09-06T07:46:38.700Z,100515.28
2022-09-06T07:49:05.877Z,100505.97
2022-09-06T07:51:32.905Z,100512.56
2022-09-06T07:54:26.370Z,100504.28
2022-09-06T07:56:46.468Z,100501.06
2022-09-06T07:59:13.402Z,100500.47
2022-09-06T08:01:40.812Z,100501.06
2022-09-06T08:04:13.079Z,100498.56
2022-09-06T08:09:33.159Z,100499.09
2022-09-06T08:11:59.769Z,100498.41
2022-09-06T08:14:26.472Z,100504.88
2022-09-06T08:16:53.035Z,100496.53
2022-09-06T08:19:19.528Z,100500.19
2022-09-06T08:21:46.119Z,100505.81
2022-09-06T08:24:13.209Z,100506.94
2022-09-06T08:26:40.557Z,100506.94
2022-09-06T08:29:08.588Z,100512.47
2022-09-06T08:31:37.702Z,100514.78
2022-09-06T08:34:04.339Z,100512.63
2022-09-06T08:36:31.520Z,100516.03
2022-09-06T08:39:04.473Z,100505.69
2022-09-06T08:41:41.851Z,100499.88
2022-09-06T08:47:02.157Z,100510.50
2022-09-06T08:49:35.433Z,100509.22
2022-09-06T08:52:22.461Z,100510.09
2022-09-06T08:55:01.277Z,100501.81
2022-09-06T08:57:53.459Z,100496.63
2022-09-06T09:00:20.567Z,100495.00
2022-09-06T09:02:51.707Z,100487.13
2022-09-06T09:05:33.780Z,100483.84
2022-09-06T09:08:08.016Z,100480.19
2022-09-06T09:10:42.179Z,100480.34
2022-09-06T09:13:18.489Z,100472.81
2022-09-06T09:15:45.144Z,100467.34
2022-09-06T09:18:11.903Z,100466.13
2022-09-06T09:20:39.046Z,100468.25
2022-09-06T09:23:05.587Z,100464.31
2022-09-06T09:25:33.272Z,100466.06
2022-09-06T09:28:00.281Z,100464.09
2022-09-06T09:33:24.581Z,100456.34
2022-09-06T09:35:51.696Z,100450.34
2022-09-06T09:38:27.801Z,100454.91
2022-09-06T09:41:01.564Z,100456.56
2022-09-06T09:43:34.802Z,100445.69
2022-09-06T09:46:24.327Z,100450.84
2022-09-06T09:49:11.017Z,100445.94
2022-09-06T09:51:39.075Z,100454.13
2022-09-06T09:54:08.931Z,100440.94
2022-09-06T09:56:43.629Z,100443.50
2022-09-06T09:59:42.101Z,100442.13
2022-09-06T10:02:30.014Z,100444.16
2022-09-06T10:05:20.701Z,100448.81
2022-09-06T10:07:49.775Z,100443.97
2022-09-06T10:10:23.137Z,100431.44
2022-09-06T10:13:07.238Z,100425.66
2022-09-06T10:15:38.823Z,100430.81
2022-09-06T10:18:05.654Z,100435.66
2022-09-06T10:20:42.161Z,100436.41
2022-09-06T10:26:38.333Z,100433.88
2022-09-06T10:29:06.375Z,100427.34
2022-09-06T10:31:47.398Z,100431.28
2022-09-06T10:34:19.812Z,100423.81
2022-09-06T10:36:54.832Z,100420.63
2022-09-06T10:39:54.864Z,100412.75
2022-09-06T10:42:33.863Z,100425.31
2022-09-06T10:45:23.281Z,100424.91
2022-09-06T10:47:54.919Z,100409.44
2022-09-06T10:50:25.664Z,100420.00
2022-09-06T10:52:53.361Z,100415.31
2022-09-06T10:55:20.464Z,100409.41
2022-09-06T11:00:47.272Z,100402.78
2022-09-06T11:03:57.103Z,100396.94
2022-09-06T11:06:32.678Z,100395.09
2022-09-06T11:09:17.994Z,100389.75
2022-09-06T11:11:46.454Z,100392.59
2022-09-06T11:14:14.140Z,100389.66
2022-09-06T11:16:59.129Z,100387.81
2022-09-06T11:19:32.350Z,100387.34
2022-09-06T11:22:40.828Z,100390.22
2022-09-06T11:25:36.276Z,100387.72
2022-09-06T11:28:09.780Z,100377.50
2022-09-06T11:30:36.778Z,100381.22
2022-09-06T11:33:18.614Z,100383.63
2022-09-06T11:35:45.163Z,100392.91
2022-09-06T11:38:14.608Z,100399.81
2022-09-06T11:40:45.306Z,100386.03
2022-09-06T11:43:42.698Z,100389.47
2022-09-06T11:46:09.349Z,100388.44
2022-09-06T11:49:02.453Z,100372.94
2022-09-06T11:51:41.015Z,100379.88
2022-09-06T11:54:19.989Z,100369.59
2022-09-06T11:56:46.367Z,100358.28
2022-09-06T11:59:33.297Z,100362.59
2022-09-06T12:02:01.218Z,100360.56
2022-09-06T12:05:07.495Z,100355.97
2022-09-06T12:07:38.461Z,100353.34
2022-09-06T12:10:30.162Z,100362.59
2022-09-06T12:12:57.664Z,100357.31
2022-09-06T12:15:32.832Z,100353.28
2022-09-06T12:18:00.533Z,100349.53
2022-09-06T12:20:48.884Z,100353.75
2022-09-06T12:23:42.295Z,100344.03
2022-09-06T12:26:10.600Z,100340.16
2022-09-06T12:28:51.984Z,100333.50
2022-09-06T12:31:39.591Z,100341.66
2022-09-06T12:34:34.800Z,100333.44
2022-09-06T12:37:04.865Z,100330.84
2022-09-06T12:39:31.854Z,100329.16
2022-09-06T12:42:04.879Z,100323.41
2022-09-06T12:44:36.266Z,100323.63
2022-09-06T12:47:24.766Z,100330.97
2022-09-06T12:50:13.325Z,100319.44
2022-09-06T12:52:54.296Z,100306.25
2022-09-06T12:55:34.284Z,100301.31
2022-09-06T12:58:04.830Z,100302.28
2022-09-06T13:00:36.226Z,100306.56
2022-09-06T13:03:20.967Z,100304.06
2022-09-06T13:05:47.808Z,100304.22
2022-09-06T13:08:22.753Z,100295.31
2022-09-06T13:10:49.222Z,100297.38
2022-09-06T13:13:24.599Z,100290.00
2022-09-06T13:15:53.086Z,100294.22
2022-09-06T13:18:35.346Z,100289.19
2022-09-06T13:21:07.767Z,100296.88
2022-09-06T13:23:46.686Z,100296.19
2022-09-06T13:26:14.427Z,100297.88
2022-09-06T13:28:41.380Z,100281.53
2022-09-06T13:31:17.327Z,100293.72
2022-09-06T13:33:45.146Z,100278.91
2022-09-06T13:36:11.551Z,100282.56
2022-09-06T13:38:37.966Z,100282.56
2022-09-06T13:41:26.459Z,100278.00
2022-09-06T13:44:00.657Z,100282.22
2022-09-06T13:46:27.332Z,100279.22
2022-09-06T13:48:54.571Z,100277.47
2022-09-06T13:51:21.689Z,100276.75
2022-09-06T13:53:48.903Z,100268.72
2022-09-06T13:56:16.762Z,100276.69
2022-09-06T13:58:45.079Z,100274.41
2022-09-06T14:01:28.253Z,100280.66
2022-09-06T14:03:55.131Z,100278.56
2022-09-06T14:06:21.684Z,100274.41
2022-09-06T14:09:07.248Z,100271.28
2022-09-06T14:11:34.593Z,100269.22
2022-09-06T14:14:01.127Z,100263.63
2022-09-06T14:16:27.652Z,100252.53
2022-09-06T14:18:54.128Z,100251.47
2022-09-06T14:21:20.656Z,100270.00
2022-09-06T14:23:52.049Z,100258.88
2022-09-06T14:26:20.866Z,100257.31
2022-09-06T14:28:47.869Z,100250.31
2022-09-06T14:31:17.035Z,100237.78
2022-09-06T14:33:43.924Z,100245.56
2022-09-06T14:36:17.012Z,100245.75
2022-09-06T14:38:45.322Z,100238.25
2022-09-06T14:41:15.778Z,100229.78
2022-09-06T14:43:43.471Z,100236.25
2022-09-06T14:46:12.729Z,100230.97
2022-09-06T14:48:42.434Z,100234.22
2022-09-06T14:51:10.031Z,100235.44
2022-09-06T14:53:41.349Z,100227.56
2022-09-06T14:56:09.542Z,100222.13
2022-09-06T14:58:37.767Z,100226.31
2022-09-06T15:01:15.476Z,100217.97
2022-09-06T15:03:44.496Z,100220.59
2022-09-06T15:06:11.028Z,100222.59
2022-09-06T15:08:37.933Z,100212.16
2022-09-06T15:11:07.843Z,100213.72
2022-09-06T15:13:36.163Z,100213.75
2022-09-06T15:16:04.475Z,100216.03
2022-09-06T15:18:31.835Z,100216.38
2022-09-06T15:20:58.533Z,100214.28
2022-09-06T15:23:27.370Z,100209.25
2022-09-06T15:25:54.129Z,100202.00
2022-09-06T15:28:20.878Z,100210.53
2022-09-06T15:30:47.887Z,100204.50
2022-09-06T15:33:15.005Z,100200.31
2022-09-06T15:35:43.065Z,100195.06
2022-09-06T15:38:12.761Z,100196.59
2022-09-06T15:40:39.367Z,100188.19
2022-09-06T15:43:06.222Z,100195.19
2022-09-06T15:45:47.255Z,100187.75
2022-09-06T15:48:15.863Z,100185.50
2022-09-06T15:50:51.232Z,100185.16
2022-09-06T15:53:19.359Z,100181.94
2022-09-06T15:56:02.583Z,100190.75
2022-09-06T15:58:30.425Z,100196.94
2022-09-06T16:01:04.710Z,100190.97
2022-09-06T16:03:32.711Z,100193.72
2022-09-06T16:09:00.316Z,100187.78
2022-09-06T16:11:28.905Z,100181.84
2022-09-06T16:13:56.126Z,100183.59
2022-09-06T16:16:23.026Z,100174.88
2022-09-06T16:18:52.056Z,100167.91
2022-09-06T16:21:25.170Z,100163.66
2022-09-06T16:23:58.184Z,100172.41
2022-09-06T16:26:27.926Z,100181.34
2022-09-06T16:28:54.608Z,100179.06
2022-09-06T16:31:22.013Z,100186.34
2022-09-06T16:33:49.668Z,100182.44
2022-09-06T16:36:17.671Z,100181.03
2022-09-06T16:38:45.313Z,100177.13
2022-09-06T16:41:22.762Z,100181.91
2022-09-06T16:43:49.418Z,100177.97
2022-09-06T16:46:16.351Z,100184.00
2022-09-06T16:48:43.006Z,100185.56
2022-09-06T16:51:15.206Z,100179.97
2022-09-06T16:53:44.546Z,100183.50
2022-09-06T16:56:12.885Z,100180.97
2022-09-06T16:58:39.471Z,100184.22
2022-09-06T17:01:08.483Z,100194.53
2022-09-06T17:03:39.022Z,100192.00
2022-09-06T17:06:07.429Z,100196.00
2022-09-06T17:08:35.260Z,100193.84
2022-09-06T17:11:06.607Z,100191.66
2022-09-06T17:13:33.504Z,100182.44
2022-09-06T17:16:22.107Z,100192.50
2022-09-06T17:18:49.962Z,100178.94
2022-09-06T17:21:16.451Z,100184.47
2022-09-06T17:23:43.431Z,100185.47
2022-09-06T17:26:09.895Z,100184.94
2022-09-06T17:28:38.196Z,100183.72
2022-09-06T17:31:05.691Z,100192.41
2022-09-06T17:33:33.742Z,100188.53
2022-09-06T17:36:12.787Z,100188.19
2022-09-06T17:38:42.531Z,100194.72
2022-09-06T17:41:20.414Z,100189.31
2022-09-06T17:43:47.467Z,100189.63
2022-09-06T17:46:14.959Z,100190.63
2022-09-06T17:48:43.448Z,100192.78
2022-09-06T17:51:11.346Z,100191.56
2022-09-06T17:53:38.543Z,100180.56
2022-09-06T17:56:09.980Z,100185.19
2022-09-06T17:58:37.470Z,100184.13
2022-09-06T18:01:04.923Z,100180.47
2022-09-06T18:03:31.746Z,100172.09
2022-09-06T18:06:13.580Z,100180.66
2022-09-06T18:08:43.721Z,100180.09
2022-09-06T18:11:18.047Z,100198.22
2022-09-06T18:13:45.480Z,100196.00
2022-09-06T18:16:14.028Z,100195.06
2022-09-06T18:18:41.545Z,100202.03
2022-09-06T18:21:08.102Z,100207.41
2022-09-06T18:23:35.626Z,100211.41
2022-09-06T18:26:05.372Z,100208.88
2022-09-06T18:28:34.320Z,100201.03
2022-09-06T18:31:09.456Z,100198.28
2022-09-06T18:33:36.838Z,100197.84
2022-09-06T18:36:05.024Z,100205.66
2022-09-06T18:38:31.771Z,100200.22
2022-09-06T18:41:04.146Z,100196.97
2022-09-06T18:43:33.656Z,100195.13
2022-09-06T18:46:04.066Z,100189.09
2022-09-06T18:48:32.935Z,100196.56
2022-09-06T18:51:11.633Z,100191.81
2022-09-06T18:53:44.440Z,100190.72
2022-09-06T18:56:13.164Z,100196.50
2022-09-06T18:58:40.808Z,100189.09
2022-09-06T19:01:12.874Z,100199.81
2022-09-06T19:03:40.511Z,100199.34
2022-09-06T19:06:16.227Z,100203.94
2022-09-06T19:08:43.503Z,100199.69
2022-09-06T19:11:19.184Z,100186.31
2022-09-06T19:13:50.058Z,100194.31
2022-09-06T19:16:17.027Z,100201.31
2022-09-06T19:18:44.096Z,100194.66
2022-09-06T19:21:19.066Z,100184.13
2022-09-06T19:23:47.794Z,100192.53
2022-09-06T19:26:20.460Z,100196.31
2022-09-06T19:28:53.107Z,100180.63
2022-09-06T19:31:20.107Z,100185.84
2022-09-06T19:33:48.228Z,100182.03
2022-09-06T19:36:15.863Z,100179.56
2022-09-06T19:39:02.067Z,100181.38
2022-09-06T19:41:30.677Z,100183.34
2022-09-06T19:43:58.485Z,100180.97
2022-09-06T19:46:26.640Z,100175.34
2022-09-06T19:48:56.006Z,100175.06
2022-09-06T19:51:23.588Z,100170.19
2022-09-06T19:53:53.052Z,100156.75
2022-09-06T19:56:22.393Z,100155.78
2022-09-06T19:58:55.255Z,100152.16
2022-09-06T20:01:22.839Z,100153.53
2022-09-06T20:03:49.989Z,100149.91
2022-09-06T20:06:16.701Z,100148.66
2022-09-06T20:08:43.202Z,100143.53
2022-09-06T20:11:12.763Z,100134.72
2022-09-06T20:13:40.380Z,100131.44
2022-09-06T20:16:08.636Z,100122.63
2022-09-06T20:18:35.506Z,100121.59
2022-09-06T20:21:02.998Z,100124.47
2022-09-06T20:23:31.935Z,100129.66
2022-09-06T20:26:04.316Z,100124.34
2022-09-06T20:28:32.042Z,100117.88
2022-09-06T20:31:06.270Z,100115.22
2022-09-06T20:33:33.812Z,100113.16
2022-09-06T20:36:02.931Z,100109.75
2022-09-06T20:38:35.437Z,100108.09
2022-09-06T20:41:07.709Z,100113.66
2022-09-06T20:43:38.958Z,100109.88
2022-09-06T20:46:17.013Z,100120.78
2022-09-06T20:48:45.535Z,100117.66
2022-09-06T20:51:18.837Z,100113.34
2022-09-06T20:53:48.323Z,100117.28
2022-09-06T20:56:17.438Z,100117.28
2022-09-06T20:58:49.166Z,100127.38
2022-09-06T21:01:22.557Z,100118.38
2022-09-06T21:03:52.376Z,100123.91
2022-09-06T21:06:20.505Z,100123.06
2022-09-06T21:08:47.979Z,100129.63
2022-09-06T21:11:14.807Z,100117.31
2022-09-06T21:13:42.131Z,100111.69
2022-09-06T21:16:08.877Z,100112.97
2022-09-06T21:18:36.013Z,100105.22
2022-09-06T21:21:05.521Z,100115.06
2022-09-06T21:23:35.390Z,100110.09
2022-09-06T21:26:03.225Z,100113.44
2022-09-06T21:28:32.801Z,100112.78
2022-09-06T21:31:12.303Z,100110.72
2022-09-06T21:33:43.196Z,100112.72
2022-09-06T21:36:15.357Z,100112.22
2022-09-06T21:38:45.571Z,100107.03
2022-09-06T21:41:14.037Z,100106.34
2022-09-06T21:43:41.226Z,100106.25
2022-09-06T21:46:10.860Z,100101.22
2022-09-06T21:48:38.799Z,100101.63
2022-09-06T21:51:14.079Z,100114.56
2022-09-06T21:53:42.694Z,100120.44
2022-09-06T21:56:10.136Z,100118.91
2022-09-06T21:58:37.220Z,100116.81
2022-09-06T22:01:04.963Z,100122.69
2022-09-06T22:03:35.209Z,100126.19
2022-09-06T22:06:13.963Z,100122.00
2022-09-06T22:08:43.783Z,100132.19
2022-09-06T22:11:22.344Z,100142.50
2022-09-06T22:13:50.169Z,100130.47
2022-09-06T22:16:20.324Z,100125.22
2022-09-06T22:18:49.211Z,100118.16
2022-09-06T22:21:20.098Z,100122.97
2022-09-06T22:24:01.855Z,100122.53
2022-09-06T22:26:30.397Z,100115.53
2022-09-06T22:28:58.956Z,100111.19
2022-09-06T22:31:27.397Z,100110.81
2022-09-06T22:33:54.701Z,100104.09
2022-09-06T22:36:23.704Z,100108.84
2022-09-06T22:38:53.290Z,100107.41
2022-09-06T22:41:19.845Z,100109.34
2022-09-06T22:43:46.540Z,100099.13
2022-09-06T22:46:13.886Z,100099.59
2022-09-06T22:48:41.262Z,100094.69
2022-09-06T22:51:08.120Z,100093.31
2022-09-06T22:53:35.135Z,100090.66
2022-09-06T22:56:02.534Z,100082.84
2022-09-06T22:58:29.614Z,100098.28
2022-09-06T23:00:57.276Z,100093.00
2022-09-06T23:03:24.035Z,100098.88
2022-09-06T23:05:50.865Z,100087.38
2022-09-06T23:08:17.411Z,100080.25
2022-09-06T23:10:44.345Z,100079.03
2022-09-06T23:13:11.371Z,100070.47
2022-09-06T23:15:40.731Z,100067.16
2022-09-06T23:18:08.573Z,100070.06
2022-09-06T23:20:36.839Z,100070.91
2022-09-06T23:23:05.225Z,100060.56
2022-09-06T23:25:31.954Z,100052.34
2022-09-06T23:28:00.077Z,100045.75
2022-09-06T23:30:27.082Z,100058.28
2022-09-06T23:32:53.918Z,100054.94
2022-09-06T23:35:20.370Z,100062.38
2022-09-06T23:37:51.359Z,100057.97
2022-09-06T23:40:19.430Z,100069.38
2022-09-06T23:42:46.902Z,100074.59
2022-09-06T23:45:13.816Z,100067.09
2022-09-06T23:47:41.080Z,100070.25
2022-09-06T23:50:07.800Z,100068.06
2022-09-06T23:52:34.503Z,100069.75
2022-09-06T23:55:00.956Z,100067.03
2022-09-06T23:57:27.663Z,100074.97
2022-09-06T23:59:54.095Z,100094.19
